sensor_id;sensor_type;location;lat;lon;timestamp;temperature;humidity
21047;DHT22;10682;50.874;3.656;2023-02-11T00:03:45;5.60;99.90
21047;DHT22;10682;50.874;3.656;2023-02-11T00:06:12;5.60;99.90
21047;DHT22;10682;50.874;3.656;2023-02-11T00:08:39;5.60;99.90
21047;DHT22;10682;50.874;3.656;2023-02-11T00:11:06;5.60;99.90
21047;DHT22;10682;50.874;3.656;2023-02-11T00:13:35;5.50;99.90
21047;DHT22;10682;50.874;3.656;2023-02-11T00:16:07;5.50;99.90
21047;DHT22;10682;50.874;3.656;2023-02-11T00:18:39;5.50;99.90
21047;DHT22;10682;50.874;3.656;2023-02-11T00:21:13;5.50;99.90
21047;DHT22;10682;50.874;3.656;2023-02-11T00:23:45;5.50;99.90
21047;DHT22;10682;50.874;3.656;2023-02-11T00:26:15;5.50;99.90
21047;DHT22;10682;50.874;3.656;2023-02-11T00:28:48;5.40;99.90
21047;DHT22;10682;50.874;3.656;2023-02-11T00:31:19;5.40;99.90
21047;DHT22;10682;50.874;3.656;2023-02-11T00:33:47;5.40;99.90
21047;DHT22;10682;50.874;3.656;2023-02-11T00:36:17;5.40;99.90
21047;DHT22;10682;50.874;3.656;2023-02-11T00:38:46;5.40;99.90
21047;DHT22;10682;50.874;3.656;2023-02-11T00:41:14;5.40;99.90
21047;DHT22;10682;50.874;3.656;2023-02-11T00:43:42;5.40;99.90
21047;DHT22;10682;50.874;3.656;2023-02-11T00:46:09;5.50;99.90
21047;DHT22;10682;50.874;3.656;2023-02-11T00:48:37;5.40;99.90
21047;DHT22;10682;50.874;3.656;2023-02-11T00:51:04;5.40;99.90
21047;DHT22;10682;50.874;3.656;2023-02-11T00:53:32;5.40;99.90
21047;DHT22;10682;50.874;3.656;2023-02-11T00:55:59;5.40;99.90
21047;DHT22;10682;50.874;3.656;2023-02-11T00:58:27;5.30;99.90
21047;DHT22;10682;50.874;3.656;2023-02-11T01:00:55;5.30;99.90
21047;DHT22;10682;50.874;3.656;2023-02-11T01:03:22;5.30;99.90
21047;DHT22;10682;50.874;3.656;2023-02-11T01:05:50;5.30;99.90
21047;DHT22;10682;50.874;3.656;2023-02-11T01:08:17;5.30;99.90
21047;DHT22;10682;50.874;3.656;2023-02-11T01:10:56;5.20;99.90
21047;DHT22;10682;50.874;3.656;2023-02-11T01:13:24;5.20;99.90
21047;DHT22;10682;50.874;3.656;2023-02-11T01:15:53;5.20;99.90
21047;DHT22;10682;50.874;3.656;2023-02-11T01:18:21;5.10;99.90
21047;DHT22;10682;50.874;3.656;2023-02-11T01:20:50;5.10;99.90
21047;DHT22;10682;50.874;3.656;2023-02-11T01:23:18;5.10;99.90
21047;DHT22;10682;50.874;3.656;2023-02-11T01:25:45;5.10;99.90
21047;DHT22;10682;50.874;3.656;2023-02-11T01:28:18;5.20;99.90
21047;DHT22;10682;50.874;3.656;2023-02-11T01:30:47;5.30;99.90
21047;DHT22;10682;50.874;3.656;2023-02-11T01:33:15;5.30;99.90
21047;DHT22;10682;50.874;3.656;2023-02-11T01:35:42;5.30;99.90
21047;DHT22;10682;50.874;3.656;2023-02-11T01:38:22;5.30;99.90
21047;DHT22;10682;50.874;3.656;2023-02-11T01:40:55;5.40;99.90
21047;DHT22;10682;50.874;3.656;2023-02-11T01:43:25;5.50;99.90
21047;DHT22;10682;50.874;3.656;2023-02-11T01:48:55;5.60;99.90
21047;DHT22;10682;50.874;3.656;2023-02-11T01:51:49;5.70;99.90
21047;DHT22;10682;50.874;3.656;2023-02-11T01:54:21;5.80;99.90
21047;DHT22;10682;50.874;3.656;2023-02-11T01:57:10;5.80;99.90
21047;DHT22;10682;50.874;3.656;2023-02-11T01:59:59;5.80;99.90
21047;DHT22;10682;50.874;3.656;2023-02-11T02:02:39;5.80;99.90
21047;DHT22;10682;50.874;3.656;2023-02-11T02:10:34;5.90;99.90
21047;DHT22;10682;50.874;3.656;2023-02-11T02:13:02;5.90;99.90
21047;DHT22;10682;50.874;3.656;2023-02-11T02:15:32;6.00;99.90
21047;DHT22;10682;50.874;3.656;2023-02-11T02:21:24;6.00;99.90
21047;DHT22;10682;50.874;3.656;2023-02-11T02:36:21;6.10;99.90
21047;DHT22;10682;50.874;3.656;2023-02-11T02:39:06;6.00;99.90
21047;DHT22;10682;50.874;3.656;2023-02-11T02:41:38;6.00;99.90
21047;DHT22;10682;50.874;3.656;2023-02-11T02:44:07;6.00;99.90
21047;DHT22;10682;50.874;3.656;2023-02-11T02:46:35;6.00;99.90
21047;DHT22;10682;50.874;3.656;2023-02-11T02:49:05;6.00;99.90
21047;DHT22;10682;50.874;3.656;2023-02-11T03:09:45;6.20;99.90
21047;DHT22;10682;50.874;3.656;2023-02-11T03:12:17;6.20;99.90
21047;DHT22;10682;50.874;3.656;2023-02-11T03:14:46;6.20;99.90
21047;DHT22;10682;50.874;3.656;2023-02-11T03:17:16;6.20;99.90
21047;DHT22;10682;50.874;3.656;2023-02-11T03:19:45;6.20;99.90
21047;DHT22;10682;50.874;3.656;2023-02-11T03:22:21;6.30;99.90
21047;DHT22;10682;50.874;3.656;2023-02-11T03:24:51;6.30;99.90
21047;DHT22;10682;50.874;3.656;2023-02-11T03:30:24;6.30;99.90
21047;DHT22;10682;50.874;3.656;2023-02-11T03:33:05;6.30;99.90
21047;DHT22;10682;50.874;3.656;2023-02-11T03:35:53;6.30;99.90
21047;DHT22;10682;50.874;3.656;2023-02-11T03:38:35;6.30;99.90
21047;DHT22;10682;50.874;3.656;2023-02-11T03:41:06;6.40;99.90
21047;DHT22;10682;50.874;3.656;2023-02-11T03:43:37;6.40;99.90
21047;DHT22;10682;50.874;3.656;2023-02-11T03:46:09;6.40;99.90
21047;DHT22;10682;50.874;3.656;2023-02-11T03:48:50;6.40;99.90
21047;DHT22;10682;50.874;3.656;2023-02-11T03:51:19;6.40;99.90
21047;DHT22;10682;50.874;3.656;2023-02-11T03:53:48;6.40;99.90
21047;DHT22;10682;50.874;3.656;2023-02-11T03:56:22;6.40;99.90
21047;DHT22;10682;50.874;3.656;2023-02-11T03:58:52;6.50;99.90
21047;DHT22;10682;50.874;3.656;2023-02-11T04:01:22;6.40;99.90
21047;DHT22;10682;50.874;3.656;2023-02-11T04:03:52;6.50;99.90
21047;DHT22;10682;50.874;3.656;2023-02-11T04:06:19;6.50;99.90
21047;DHT22;10682;50.874;3.656;2023-02-11T04:08:46;6.50;99.90
21047;DHT22;10682;50.874;3.656;2023-02-11T04:11:13;6.50;99.90
21047;DHT22;10682;50.874;3.656;2023-02-11T04:13:40;6.50;99.90
21047;DHT22;10682;50.874;3.656;2023-02-11T04:16:07;6.60;99.90
21047;DHT22;10682;50.874;3.656;2023-02-11T04:18:47;6.60;99.90
21047;DHT22;10682;50.874;3.656;2023-02-11T04:21:15;6.60;99.90
21047;DHT22;10682;50.874;3.656;2023-02-11T04:23:42;6.60;99.90
21047;DHT22;10682;50.874;3.656;2023-02-11T04:26:09;6.60;99.90
21047;DHT22;10682;50.874;3.656;2023-02-11T04:28:36;6.60;99.90
21047;DHT22;10682;50.874;3.656;2023-02-11T04:31:03;6.70;99.90
21047;DHT22;10682;50.874;3.656;2023-02-11T04:33:31;6.70;99.90
21047;DHT22;10682;50.874;3.656;2023-02-11T04:35:58;6.70;99.90
21047;DHT22;10682;50.874;3.656;2023-02-11T04:38:25;6.60;99.90
21047;DHT22;10682;50.874;3.656;2023-02-11T04:40:52;6.60;99.90
21047;DHT22;10682;50.874;3.656;2023-02-11T04:43:19;6.60;99.90
21047;DHT22;10682;50.874;3.656;2023-02-11T04:45:46;6.60;99.90
21047;DHT22;10682;50.874;3.656;2023-02-11T04:48:13;6.60;99.90
21047;DHT22;10682;50.874;3.656;2023-02-11T04:50:40;6.70;99.90
21047;DHT22;10682;50.874;3.656;2023-02-11T04:53:07;6.60;99.90
21047;DHT22;10682;50.874;3.656;2023-02-11T04:55:34;6.60;99.90
21047;DHT22;10682;50.874;3.656;2023-02-11T04:58:01;6.60;99.90
21047;DHT22;10682;50.874;3.656;2023-02-11T05:00:28;6.70;99.90
21047;DHT22;10682;50.874;3.656;2023-02-11T05:02:55;6.70;99.90
21047;DHT22;10682;50.874;3.656;2023-02-11T05:05:22;6.70;99.90
21047;DHT22;10682;50.874;3.656;2023-02-11T05:07:49;6.70;99.90
21047;DHT22;10682;50.874;3.656;2023-02-11T05:10:16;6.70;99.90
21047;DHT22;10682;50.874;3.656;2023-02-11T05:12:43;6.70;99.90
21047;DHT22;10682;50.874;3.656;2023-02-11T05:15:10;6.80;99.90
21047;DHT22;10682;50.874;3.656;2023-02-11T05:17:37;6.70;99.90
21047;DHT22;10682;50.874;3.656;2023-02-11T05:20:05;6.70;99.90
21047;DHT22;10682;50.874;3.656;2023-02-11T05:22:32;6.80;99.90
21047;DHT22;10682;50.874;3.656;2023-02-11T05:24:59;6.80;99.90
21047;DHT22;10682;50.874;3.656;2023-02-11T05:27:26;6.70;99.90
21047;DHT22;10682;50.874;3.656;2023-02-11T05:29:53;6.80;99.90
21047;DHT22;10682;50.874;3.656;2023-02-11T05:32:20;6.80;99.90
21047;DHT22;10682;50.874;3.656;2023-02-11T05:34:47;6.80;99.90
21047;DHT22;10682;50.874;3.656;2023-02-11T05:37:14;6.80;99.90
21047;DHT22;10682;50.874;3.656;2023-02-11T05:39:41;6.80;99.90
21047;DHT22;10682;50.874;3.656;2023-02-11T05:42:08;6.80;99.90
21047;DHT22;10682;50.874;3.656;2023-02-11T05:44:35;6.80;99.90
21047;DHT22;10682;50.874;3.656;2023-02-11T05:47:02;6.80;99.90
21047;DHT22;10682;50.874;3.656;2023-02-11T05:49:29;6.80;99.90
21047;DHT22;10682;50.874;3.656;2023-02-11T05:51:56;6.80;99.90
21047;DHT22;10682;50.874;3.656;2023-02-11T05:54:23;6.80;99.90
21047;DHT22;10682;50.874;3.656;2023-02-11T05:56:50;6.80;99.90
21047;DHT22;10682;50.874;3.656;2023-02-11T05:59:18;6.80;99.90
21047;DHT22;10682;50.874;3.656;2023-02-11T06:01:45;6.80;99.90
21047;DHT22;10682;50.874;3.656;2023-02-11T06:04:12;6.80;99.90
21047;DHT22;10682;50.874;3.656;2023-02-11T06:06:39;6.80;99.90
21047;DHT22;10682;50.874;3.656;2023-02-11T06:09:06;6.80;99.90
21047;DHT22;10682;50.874;3.656;2023-02-11T06:11:33;6.80;99.90
21047;DHT22;10682;50.874;3.656;2023-02-11T06:14:00;6.80;99.90
21047;DHT22;10682;50.874;3.656;2023-02-11T06:16:27;6.80;99.90
21047;DHT22;10682;50.874;3.656;2023-02-11T06:18:54;6.80;99.90
21047;DHT22;10682;50.874;3.656;2023-02-11T06:21:21;6.80;99.90
21047;DHT22;10682;50.874;3.656;2023-02-11T06:23:56;6.80;99.90
21047;DHT22;10682;50.874;3.656;2023-02-11T06:26:23;6.80;99.90
21047;DHT22;10682;50.874;3.656;2023-02-11T06:28:50;6.80;99.90
21047;DHT22;10682;50.874;3.656;2023-02-11T06:31:17;6.80;99.90
21047;DHT22;10682;50.874;3.656;2023-02-11T06:33:44;6.80;99.90
21047;DHT22;10682;50.874;3.656;2023-02-11T06:36:17;6.80;99.90
21047;DHT22;10682;50.874;3.656;2023-02-11T06:38:46;6.80;99.90
21047;DHT22;10682;50.874;3.656;2023-02-11T06:41:16;6.80;99.90
21047;DHT22;10682;50.874;3.656;2023-02-11T06:43:45;6.80;99.90
21047;DHT22;10682;50.874;3.656;2023-02-11T06:46:14;6.80;99.90
21047;DHT22;10682;50.874;3.656;2023-02-11T06:48:41;6.90;99.90
21047;DHT22;10682;50.874;3.656;2023-02-11T06:51:11;6.90;99.90
21047;DHT22;10682;50.874;3.656;2023-02-11T06:53:45;6.90;99.90
21047;DHT22;10682;50.874;3.656;2023-02-11T06:56:18;7.00;99.90
21047;DHT22;10682;50.874;3.656;2023-02-11T06:58:53;6.90;99.90
21047;DHT22;10682;50.874;3.656;2023-02-11T07:01:21;7.00;99.90
21047;DHT22;10682;50.874;3.656;2023-02-11T07:03:50;7.00;99.90
21047;DHT22;10682;50.874;3.656;2023-02-11T07:06:22;7.00;99.90
21047;DHT22;10682;50.874;3.656;2023-02-11T07:08:54;7.00;99.90
21047;DHT22;10682;50.874;3.656;2023-02-11T07:11:26;7.00;99.90
21047;DHT22;10682;50.874;3.656;2023-02-11T07:13:58;7.00;99.90
21047;DHT22;10682;50.874;3.656;2023-02-11T07:16:27;7.00;99.90
21047;DHT22;10682;50.874;3.656;2023-02-11T07:18:54;7.10;99.90
21047;DHT22;10682;50.874;3.656;2023-02-11T07:21:22;7.10;99.90
21047;DHT22;10682;50.874;3.656;2023-02-11T07:23:49;7.10;99.90
21047;DHT22;10682;50.874;3.656;2023-02-11T07:26:19;7.10;99.90
21047;DHT22;10682;50.874;3.656;2023-02-11T07:28:49;7.10;99.90
21047;DHT22;10682;50.874;3.656;2023-02-11T07:31:25;7.20;99.90
21047;DHT22;10682;50.874;3.656;2023-02-11T07:33:56;7.20;99.90
21047;DHT22;10682;50.874;3.656;2023-02-11T07:36:26;7.20;99.90
21047;DHT22;10682;50.874;3.656;2023-02-11T07:38:54;7.20;99.90
21047;DHT22;10682;50.874;3.656;2023-02-11T07:41:25;7.30;99.90
21047;DHT22;10682;50.874;3.656;2023-02-11T07:43:53;7.30;99.90
21047;DHT22;10682;50.874;3.656;2023-02-11T07:46:22;7.30;99.90
21047;DHT22;10682;50.874;3.656;2023-02-11T07:48:51;7.30;99.90
21047;DHT22;10682;50.874;3.656;2023-02-11T07:51:24;7.30;99.90
21047;DHT22;10682;50.874;3.656;2023-02-11T07:53:53;7.40;99.90
21047;DHT22;10682;50.874;3.656;2023-02-11T07:56:21;7.40;99.90
21047;DHT22;10682;50.874;3.656;2023-02-11T07:58:49;7.30;99.90
21047;DHT22;10682;50.874;3.656;2023-02-11T08:01:22;7.40;99.90
21047;DHT22;10682;50.874;3.656;2023-02-11T08:03:51;7.40;99.90
21047;DHT22;10682;50.874;3.656;2023-02-11T08:06:20;7.40;99.90
21047;DHT22;10682;50.874;3.656;2023-02-11T08:08:49;7.40;99.90
21047;DHT22;10682;50.874;3.656;2023-02-11T08:11:19;7.50;99.90
21047;DHT22;10682;50.874;3.656;2023-02-11T08:13:55;7.50;99.90
21047;DHT22;10682;50.874;3.656;2023-02-11T08:16:28;7.50;99.90
21047;DHT22;10682;50.874;3.656;2023-02-11T08:19:00;7.50;99.90
21047;DHT22;10682;50.874;3.656;2023-02-11T08:21:29;7.50;99.90
21047;DHT22;10682;50.874;3.656;2023-02-11T08:23:56;7.50;99.90
21047;DHT22;10682;50.874;3.656;2023-02-11T08:26:26;7.40;99.90
21047;DHT22;10682;50.874;3.656;2023-02-11T08:28:56;7.50;99.90
21047;DHT22;10682;50.874;3.656;2023-02-11T08:31:29;7.50;99.90
21047;DHT22;10682;50.874;3.656;2023-02-11T08:33:59;7.50;99.90
21047;DHT22;10682;50.874;3.656;2023-02-11T08:36:32;7.50;99.90
21047;DHT22;10682;50.874;3.656;2023-02-11T08:39:09;7.60;99.90
21047;DHT22;10682;50.874;3.656;2023-02-11T08:41:52;7.60;99.90
21047;DHT22;10682;50.874;3.656;2023-02-11T08:44:20;7.60;99.90
21047;DHT22;10682;50.874;3.656;2023-02-11T08:46:49;7.60;99.90
21047;DHT22;10682;50.874;3.656;2023-02-11T08:49:17;7.70;99.90
21047;DHT22;10682;50.874;3.656;2023-02-11T08:51:45;7.60;99.90
21047;DHT22;10682;50.874;3.656;2023-02-11T08:54:13;7.70;99.90
21047;DHT22;10682;50.874;3.656;2023-02-11T08:56:41;7.70;99.90
21047;DHT22;10682;50.874;3.656;2023-02-11T08:59:13;7.70;99.90
21047;DHT22;10682;50.874;3.656;2023-02-11T09:01:42;7.70;99.90
21047;DHT22;10682;50.874;3.656;2023-02-11T09:04:10;7.80;99.90
21047;DHT22;10682;50.874;3.656;2023-02-11T09:06:37;7.80;99.90
21047;DHT22;10682;50.874;3.656;2023-02-11T09:09:04;7.80;99.90
21047;DHT22;10682;50.874;3.656;2023-02-11T09:11:33;7.90;99.90
21047;DHT22;10682;50.874;3.656;2023-02-11T09:14:02;7.90;99.90
21047;DHT22;10682;50.874;3.656;2023-02-11T09:16:33;8.00;99.90
21047;DHT22;10682;50.874;3.656;2023-02-11T09:19:03;8.00;99.90
21047;DHT22;10682;50.874;3.656;2023-02-11T09:21:30;8.00;99.90
21047;DHT22;10682;50.874;3.656;2023-02-11T09:23:57;8.10;99.90
21047;DHT22;10682;50.874;3.656;2023-02-11T09:26:27;8.10;99.90
21047;DHT22;10682;50.874;3.656;2023-02-11T09:28:56;8.20;99.90
21047;DHT22;10682;50.874;3.656;2023-02-11T09:31:25;8.30;99.90
21047;DHT22;10682;50.874;3.656;2023-02-11T09:34:04;8.30;99.90
21047;DHT22;10682;50.874;3.656;2023-02-11T09:36:35;8.30;99.90
21047;DHT22;10682;50.874;3.656;2023-02-11T09:39:06;8.30;99.90
21047;DHT22;10682;50.874;3.656;2023-02-11T09:44:35;8.30;99.90
21047;DHT22;10682;50.874;3.656;2023-02-11T09:47:06;8.30;99.90
21047;DHT22;10682;50.874;3.656;2023-02-11T09:50:06;8.40;99.90
21047;DHT22;10682;50.874;3.656;2023-02-11T09:52:39;8.50;99.90
21047;DHT22;10682;50.874;3.656;2023-02-11T09:55:18;8.50;99.90
21047;DHT22;10682;50.874;3.656;2023-02-11T09:57:47;8.60;99.90
21047;DHT22;10682;50.874;3.656;2023-02-11T10:00:30;8.60;99.90
21047;DHT22;10682;50.874;3.656;2023-02-11T10:05:47;8.70;99.90
21047;DHT22;10682;50.874;3.656;2023-02-11T10:08:56;8.70;99.90
21047;DHT22;10682;50.874;3.656;2023-02-11T10:14:57;8.80;99.90
21047;DHT22;10682;50.874;3.656;2023-02-11T10:21:15;9.00;99.90
21047;DHT22;10682;50.874;3.656;2023-02-11T10:23:53;9.00;99.90
21047;DHT22;10682;50.874;3.656;2023-02-11T10:26:22;9.00;99.90
21047;DHT22;10682;50.874;3.656;2023-02-11T10:28:51;9.00;99.90
21047;DHT22;10682;50.874;3.656;2023-02-11T10:31:33;9.10;99.90
21047;DHT22;10682;50.874;3.656;2023-02-11T10:34:06;9.10;99.90
21047;DHT22;10682;50.874;3.656;2023-02-11T10:36:38;9.10;99.90
21047;DHT22;10682;50.874;3.656;2023-02-11T10:39:14;9.00;99.90
21047;DHT22;10682;50.874;3.656;2023-02-11T10:41:55;9.00;99.90
21047;DHT22;10682;50.874;3.656;2023-02-11T10:44:34;9.10;99.90
21047;DHT22;10682;50.874;3.656;2023-02-11T10:47:26;9.10;99.90
21047;DHT22;10682;50.874;3.656;2023-02-11T10:49:55;9.10;99.90
21047;DHT22;10682;50.874;3.656;2023-02-11T10:52:29;9.10;99.90
21047;DHT22;10682;50.874;3.656;2023-02-11T11:00:39;9.30;99.90
21047;DHT22;10682;50.874;3.656;2023-02-11T11:03:19;9.40;99.90
21047;DHT22;10682;50.874;3.656;2023-02-11T11:05:50;9.40;99.90
21047;DHT22;10682;50.874;3.656;2023-02-11T11:08:19;9.50;99.90
21047;DHT22;10682;50.874;3.656;2023-02-11T11:18:45;9.60;99.90
21047;DHT22;10682;50.874;3.656;2023-02-11T11:21:23;9.60;99.90
21047;DHT22;10682;50.874;3.656;2023-02-11T11:24:02;9.60;99.90
21047;DHT22;10682;50.874;3.656;2023-02-11T11:26:51;9.50;99.90
21047;DHT22;10682;50.874;3.656;2023-02-11T11:29:41;9.40;99.90
21047;DHT22;10682;50.874;3.656;2023-02-11T11:34:54;9.40;99.90
21047;DHT22;10682;50.874;3.656;2023-02-11T11:37:25;9.50;99.90
21047;DHT22;10682;50.874;3.656;2023-02-11T11:40:02;9.50;99.90
21047;DHT22;10682;50.874;3.656;2023-02-11T11:42:39;9.60;99.90
21047;DHT22;10682;50.874;3.656;2023-02-11T11:47:55;9.70;99.90
21047;DHT22;10682;50.874;3.656;2023-02-11T11:50:31;9.60;99.90
21047;DHT22;10682;50.874;3.656;2023-02-11T11:53:06;9.60;99.90
21047;DHT22;10682;50.874;3.656;2023-02-11T11:56:21;9.50;99.90
21047;DHT22;10682;50.874;3.656;2023-02-11T11:58:49;9.50;99.90
21047;DHT22;10682;50.874;3.656;2023-02-11T12:01:23;9.50;99.90
21047;DHT22;10682;50.874;3.656;2023-02-11T12:15:53;9.80;99.90
21047;DHT22;10682;50.874;3.656;2023-02-11T12:18:39;9.80;99.90
21047;DHT22;10682;50.874;3.656;2023-02-11T12:30:53;10.00;99.90
21047;DHT22;10682;50.874;3.656;2023-02-11T12:39:45;10.00;99.90
21047;DHT22;10682;50.874;3.656;2023-02-11T12:42:23;10.00;99.90
21047;DHT22;10682;50.874;3.656;2023-02-11T12:45:37;10.00;99.90
21047;DHT22;10682;50.874;3.656;2023-02-11T12:48:44;10.00;99.90
21047;DHT22;10682;50.874;3.656;2023-02-11T12:51:49;10.00;99.90
21047;DHT22;10682;50.874;3.656;2023-02-11T12:54:48;9.90;99.90
21047;DHT22;10682;50.874;3.656;2023-02-11T12:57:58;9.90;99.90
21047;DHT22;10682;50.874;3.656;2023-02-11T13:00:42;9.90;99.90
21047;DHT22;10682;50.874;3.656;2023-02-11T13:03:27;10.00;99.90
21047;DHT22;10682;50.874;3.656;2023-02-11T13:06:40;10.00;99.90
21047;DHT22;10682;50.874;3.656;2023-02-11T13:09:23;9.90;99.90
21047;DHT22;10682;50.874;3.656;2023-02-11T13:11:58;9.90;99.90
21047;DHT22;10682;50.874;3.656;2023-02-11T13:14:47;9.90;99.90
21047;DHT22;10682;50.874;3.656;2023-02-11T13:17:27;9.90;99.90
21047;DHT22;10682;50.874;3.656;2023-02-11T13:20:46;10.00;99.90
21047;DHT22;10682;50.874;3.656;2023-02-11T13:23:23;10.00;99.90
21047;DHT22;10682;50.874;3.656;2023-02-11T13:26:18;10.00;99.90
21047;DHT22;10682;50.874;3.656;2023-02-11T13:32:06;10.10;99.90
21047;DHT22;10682;50.874;3.656;2023-02-11T13:37:32;10.00;99.90
21047;DHT22;10682;50.874;3.656;2023-02-11T13:40:21;10.10;99.90
21047;DHT22;10682;50.874;3.656;2023-02-11T13:42:54;10.10;99.90
21047;DHT22;10682;50.874;3.656;2023-02-11T13:45:33;10.10;99.90
21047;DHT22;10682;50.874;3.656;2023-02-11T13:48:05;10.10;99.90
21047;DHT22;10682;50.874;3.656;2023-02-11T13:50:48;10.10;99.90
21047;DHT22;10682;50.874;3.656;2023-02-11T13:53:17;10.10;99.90
21047;DHT22;10682;50.874;3.656;2023-02-11T13:55:46;10.10;99.90
21047;DHT22;10682;50.874;3.656;2023-02-11T13:58:36;10.10;99.90
21047;DHT22;10682;50.874;3.656;2023-02-11T14:01:06;10.10;99.90
21047;DHT22;10682;50.874;3.656;2023-02-11T14:03:36;10.10;99.90
21047;DHT22;10682;50.874;3.656;2023-02-11T14:06:26;10.10;99.90
21047;DHT22;10682;50.874;3.656;2023-02-11T14:09:36;10.00;99.90
21047;DHT22;10682;50.874;3.656;2023-02-11T14:12:23;10.00;99.90
21047;DHT22;10682;50.874;3.656;2023-02-11T14:17:33;10.10;99.90
21047;DHT22;10682;50.874;3.656;2023-02-11T14:20:03;10.10;99.90
21047;DHT22;10682;50.874;3.656;2023-02-11T14:22:46;10.00;99.90
21047;DHT22;10682;50.874;3.656;2023-02-11T14:25:23;10.00;99.90
21047;DHT22;10682;50.874;3.656;2023-02-11T14:28:07;10.10;99.90
21047;DHT22;10682;50.874;3.656;2023-02-11T14:31:09;10.10;99.90
21047;DHT22;10682;50.874;3.656;2023-02-11T14:34:02;10.20;99.90
21047;DHT22;10682;50.874;3.656;2023-02-11T14:36:48;10.20;99.90
21047;DHT22;10682;50.874;3.656;2023-02-11T14:42:22;10.20;99.90
21047;DHT22;10682;50.874;3.656;2023-02-11T14:44:54;10.20;99.90
21047;DHT22;10682;50.874;3.656;2023-02-11T14:50:27;10.30;99.90
21047;DHT22;10682;50.874;3.656;2023-02-11T14:53:01;10.20;99.90
21047;DHT22;10682;50.874;3.656;2023-02-11T14:55:32;10.20;99.90
21047;DHT22;10682;50.874;3.656;2023-02-11T14:58:21;10.10;99.90
21047;DHT22;10682;50.874;3.656;2023-02-11T15:01:04;10.20;99.90
21047;DHT22;10682;50.874;3.656;2023-02-11T15:03:48;10.30;99.90
21047;DHT22;10682;50.874;3.656;2023-02-11T15:06:21;10.30;99.90
21047;DHT22;10682;50.874;3.656;2023-02-11T15:08:56;10.30;99.90
21047;DHT22;10682;50.874;3.656;2023-02-11T15:11:31;10.20;99.90
21047;DHT22;10682;50.874;3.656;2023-02-11T15:14:30;10.30;99.90
21047;DHT22;10682;50.874;3.656;2023-02-11T15:17:03;10.30;99.90
21047;DHT22;10682;50.874;3.656;2023-02-11T15:19:37;10.30;99.90
21047;DHT22;10682;50.874;3.656;2023-02-11T15:22:24;10.30;99.90
21047;DHT22;10682;50.874;3.656;2023-02-11T15:24:59;10.30;99.90
21047;DHT22;10682;50.874;3.656;2023-02-11T15:27:57;10.30;99.90
21047;DHT22;10682;50.874;3.656;2023-02-11T15:30:27;10.30;99.90
21047;DHT22;10682;50.874;3.656;2023-02-11T15:33:01;10.30;99.90
21047;DHT22;10682;50.874;3.656;2023-02-11T15:35:32;10.30;99.90
21047;DHT22;10682;50.874;3.656;2023-02-11T15:38:03;10.30;99.90
21047;DHT22;10682;50.874;3.656;2023-02-11T15:40:33;10.30;99.90
21047;DHT22;10682;50.874;3.656;2023-02-11T15:43:04;10.30;99.90
21047;DHT22;10682;50.874;3.656;2023-02-11T15:48:40;10.30;99.90
21047;DHT22;10682;50.874;3.656;2023-02-11T15:53:52;10.30;99.90
21047;DHT22;10682;50.874;3.656;2023-02-11T15:56:26;10.30;99.90
21047;DHT22;10682;50.874;3.656;2023-02-11T15:59:07;10.20;99.90
21047;DHT22;10682;50.874;3.656;2023-02-11T16:01:38;10.20;99.90
21047;DHT22;10682;50.874;3.656;2023-02-11T16:04:06;10.20;99.90
21047;DHT22;10682;50.874;3.656;2023-02-11T16:06:47;10.10;99.90
21047;DHT22;10682;50.874;3.656;2023-02-11T16:17:39;10.10;99.90
21047;DHT22;10682;50.874;3.656;2023-02-11T16:19:53;10.10;99.90
21047;DHT22;10682;50.874;3.656;2023-02-11T16:22:27;10.10;99.90
21047;DHT22;10682;50.874;3.656;2023-02-11T16:24:57;10.10;99.90
21047;DHT22;10682;50.874;3.656;2023-02-11T16:27:36;10.00;99.90
21047;DHT22;10682;50.874;3.656;2023-02-11T16:30:23;10.00;99.90
21047;DHT22;10682;50.874;3.656;2023-02-11T16:32:55;10.00;99.90
21047;DHT22;10682;50.874;3.656;2023-02-11T16:35:22;10.00;99.90
21047;DHT22;10682;50.874;3.656;2023-02-11T16:37:49;10.00;99.90
21047;DHT22;10682;50.874;3.656;2023-02-11T16:40:17;9.90;99.90
21047;DHT22;10682;50.874;3.656;2023-02-11T16:42:44;9.90;99.90
21047;DHT22;10682;50.874;3.656;2023-02-11T16:45:11;9.80;99.90
21047;DHT22;10682;50.874;3.656;2023-02-11T16:47:40;9.80;99.90
21047;DHT22;10682;50.874;3.656;2023-02-11T16:50:10;9.80;99.90
21047;DHT22;10682;50.874;3.656;2023-02-11T16:52:48;9.70;99.90
21047;DHT22;10682;50.874;3.656;2023-02-11T16:55:15;9.70;99.90
21047;DHT22;10682;50.874;3.656;2023-02-11T16:57:42;9.60;99.90
21047;DHT22;10682;50.874;3.656;2023-02-11T17:00:10;9.60;99.90
21047;DHT22;10682;50.874;3.656;2023-02-11T17:02:42;9.50;99.90
21047;DHT22;10682;50.874;3.656;2023-02-11T17:05:17;9.50;99.90
21047;DHT22;10682;50.874;3.656;2023-02-11T17:07:46;9.40;99.90
21047;DHT22;10682;50.874;3.656;2023-02-11T17:10:21;9.40;99.90
21047;DHT22;10682;50.874;3.656;2023-02-11T17:12:49;9.30;99.90
21047;DHT22;10682;50.874;3.656;2023-02-11T17:15:16;9.20;99.90
21047;DHT22;10682;50.874;3.656;2023-02-11T17:17:43;9.20;99.90
21047;DHT22;10682;50.874;3.656;2023-02-11T17:20:12;9.20;99.90
21047;DHT22;10682;50.874;3.656;2023-02-11T17:22:40;9.20;99.90
21047;DHT22;10682;50.874;3.656;2023-02-11T17:25:07;9.20;99.90
21047;DHT22;10682;50.874;3.656;2023-02-11T17:27:34;9.20;99.90
21047;DHT22;10682;50.874;3.656;2023-02-11T17:30:01;9.30;99.90
21047;DHT22;10682;50.874;3.656;2023-02-11T17:32:29;9.20;99.90
21047;DHT22;10682;50.874;3.656;2023-02-11T17:34:55;9.20;99.90
21047;DHT22;10682;50.874;3.656;2023-02-11T17:37:23;9.20;99.90
21047;DHT22;10682;50.874;3.656;2023-02-11T17:39:50;9.20;99.90
21047;DHT22;10682;50.874;3.656;2023-02-11T17:42:17;9.10;99.90
21047;DHT22;10682;50.874;3.656;2023-02-11T17:44:45;9.10;99.90
21047;DHT22;10682;50.874;3.656;2023-02-11T17:47:12;9.10;99.90
21047;DHT22;10682;50.874;3.656;2023-02-11T17:49:39;9.00;99.90
21047;DHT22;10682;50.874;3.656;2023-02-11T17:52:07;9.10;99.90
21047;DHT22;10682;50.874;3.656;2023-02-11T17:54:34;9.10;99.90
21047;DHT22;10682;50.874;3.656;2023-02-11T17:57:01;9.00;99.90
21047;DHT22;10682;50.874;3.656;2023-02-11T17:59:29;9.10;99.90
21047;DHT22;10682;50.874;3.656;2023-02-11T18:02:03;9.00;99.90
21047;DHT22;10682;50.874;3.656;2023-02-11T18:04:31;9.00;99.90
21047;DHT22;10682;50.874;3.656;2023-02-11T18:06:59;9.00;99.90
21047;DHT22;10682;50.874;3.656;2023-02-11T18:09:26;9.00;99.90
21047;DHT22;10682;50.874;3.656;2023-02-11T18:11:53;9.00;99.90
21047;DHT22;10682;50.874;3.656;2023-02-11T18:14:21;9.00;99.90
21047;DHT22;10682;50.874;3.656;2023-02-11T18:16:51;8.90;99.90
21047;DHT22;10682;50.874;3.656;2023-02-11T18:19:19;9.00;99.90
21047;DHT22;10682;50.874;3.656;2023-02-11T18:21:47;8.90;99.90
21047;DHT22;10682;50.874;3.656;2023-02-11T18:24:17;8.90;99.90
21047;DHT22;10682;50.874;3.656;2023-02-11T18:26:44;8.90;99.90
21047;DHT22;10682;50.874;3.656;2023-02-11T18:29:11;8.90;99.90
21047;DHT22;10682;50.874;3.656;2023-02-11T18:31:38;8.90;99.90
21047;DHT22;10682;50.874;3.656;2023-02-11T18:34:06;8.90;99.90